Time;durP1;ratioP1;P1;durP2;ratioP2;P2;SDS_P1;SDS_P2;PMS_P1;PMS_P2;Temp;Humidity;BMP_temperature;BMP_pressure;BME280_temperature;BME280_humidity;BME280_pressure;Samples;Min_cycle;Max_cycle;Signal;HPM_P1;HPM_P2
2022/12/16 00:01:22;;;;;;;66.40;34.70;;;;;;;-2.40;100.00;98246.54;105767;1294;64016;-78
2022/12/16 00:03:50;;;;;;;68.30;34.90;;;;;;;-2.41;100.00;98247.42;105045;1292;1003057;-78
2022/12/16 00:06:16;;;;;;;77.30;37.20;;;;;;;-2.41;100.00;98261.17;105801;1293;60267;-77
2022/12/16 00:08:45;;;;;;;78.20;38.00;;;;;;;-2.40;100.00;98267.94;105691;1295;67903;-79
2022/12/16 00:11:12;;;;;;;70.10;35.20;;;;;;;-2.41;100.00;98277.88;105790;1287;68795;-78
2022/12/16 00:13:39;;;;;;;68.30;37.00;;;;;;;-2.42;100.00;98270.60;105768;1288;59828;-79
2022/12/16 00:16:08;;;;;;;70.30;37.20;;;;;;;-2.44;100.00;98260.55;105768;1302;59714;-78
2022/12/16 00:18:34;;;;;;;68.20;33.70;;;;;;;-2.45;100.00;98259.53;105617;1287;59624;-79
2022/12/16 00:21:00;;;;;;;73.90;37.60;;;;;;;-2.44;100.00;98244.55;105706;1293;59845;-79
2022/12/16 00:23:28;;;;;;;68.60;33.40;;;;;;;-2.46;100.00;98231.73;105782;1293;59695;-78
2022/12/16 00:25:54;;;;;;;68.50;37.90;;;;;;;-2.49;100.00;98227.63;105623;1288;71761;-79
2022/12/16 00:28:23;;;;;;;70.70;38.20;;;;;;;-2.49;100.00;98233.20;105770;1298;59640;-78
2022/12/16 00:30:51;;;;;;;72.00;39.60;;;;;;;-2.50;100.00;98233.92;105485;1295;59638;-79
2022/12/16 00:33:18;;;;;;;69.30;36.40;;;;;;;-2.50;100.00;98229.93;105784;1294;66689;-79
2022/12/16 00:35:44;;;;;;;74.70;38.80;;;;;;;-2.51;100.00;98226.66;105636;1295;69931;-78
2022/12/16 00:38:10;;;;;;;63.20;34.20;;;;;;;-2.51;100.00;98231.71;105574;1290;59805;-79
2022/12/16 00:40:36;;;;;;;69.10;36.50;;;;;;;-2.52;100.00;98239.38;105790;1290;59761;-79
2022/12/16 00:43:02;;;;;;;58.70;33.80;;;;;;;-2.53;100.00;98240.77;105763;1287;59643;-79
2022/12/16 00:45:30;;;;;;;75.80;39.10;;;;;;;-2.54;100.00;98237.15;105790;1300;59774;-80
2022/12/16 00:47:56;;;;;;;69.40;39.30;;;;;;;-2.55;100.00;98238.06;105776;1287;59732;-78
2022/12/16 00:50:22;;;;;;;72.60;38.40;;;;;;;-2.54;100.00;98238.04;105786;1300;60134;-78
2022/12/16 00:52:48;;;;;;;76.10;39.80;;;;;;;-2.55;100.00;98238.23;105757;1290;59759;-79
2022/12/16 00:55:15;;;;;;;75.90;37.30;;;;;;;-2.56;100.00;98231.66;105774;1298;59611;-78
2022/12/16 00:57:42;;;;;;;68.20;37.90;;;;;;;-2.58;100.00;98221.61;105770;1294;59754;-79
2022/12/16 01:00:11;;;;;;;73.20;37.90;;;;;;;-2.59;100.00;98216.96;105770;1293;59777;-77
2022/12/16 01:02:42;;;;;;;81.30;42.60;;;;;;;-2.61;100.00;98213.38;105773;1287;65292;-78
2022/12/16 01:05:11;;;;;;;76.10;40.80;;;;;;;-2.63;100.00;98209.23;105796;1293;59774;-79
2022/12/16 01:07:37;;;;;;;75.00;38.50;;;;;;;-2.65;100.00;98210.50;105661;1294;59771;-79
2022/12/16 01:10:05;;;;;;;74.50;38.50;;;;;;;-2.67;100.00;98209.33;105781;1293;60018;-79
2022/12/16 01:12:31;;;;;;;75.40;39.40;;;;;;;-2.67;100.00;98203.92;105768;1293;60167;-78
2022/12/16 01:14:57;;;;;;;79.20;40.80;;;;;;;-2.66;100.00;98203.05;105764;1285;59780;-78
2022/12/16 01:17:26;;;;;;;77.40;41.70;;;;;;;-2.67;100.00;98197.34;105770;1294;59760;-78
2022/12/16 01:19:53;;;;;;;76.00;41.40;;;;;;;-2.66;100.00;98188.79;105787;1288;59756;-78
2022/12/16 01:22:20;;;;;;;77.60;40.90;;;;;;;-2.67;100.00;98184.11;105764;1295;65298;-78
2022/12/16 01:24:46;;;;;;;87.70;40.90;;;;;;;-2.67;100.00;98179.26;105778;1293;61230;-79
2022/12/16 01:27:14;;;;;;;78.40;41.50;;;;;;;-2.68;100.00;98173.90;105774;1287;59958;-78
2022/12/16 01:29:41;;;;;;;82.60;41.60;;;;;;;-2.69;100.00;98170.27;105662;1287;59820;-78
2022/12/16 01:32:12;;;;;;;77.50;41.20;;;;;;;-2.69;100.00;98166.79;105782;1295;59652;-79
2022/12/16 01:34:38;;;;;;;79.70;42.80;;;;;;;-2.69;100.00;98160.52;105770;1287;67671;-78
2022/12/16 01:37:04;;;;;;;78.20;40.80;;;;;;;-2.69;100.00;98159.33;105817;1287;59748;-78
2022/12/16 01:39:31;;;;;;;80.90;43.70;;;;;;;-2.69;100.00;98162.63;105670;1277;59730;-79
2022/12/16 01:41:56;;;;;;;82.90;43.40;;;;;;;-2.67;100.00;98162.40;105774;1290;59808;-79
2022/12/16 01:44:25;;;;;;;83.70;44.60;;;;;;;-2.67;100.00;98161.52;105790;1294;59779;-76
2022/12/16 01:46:54;;;;;;;79.20;41.70;;;;;;;-2.65;100.00;98156.59;105807;1291;68048;-78
2022/12/16 01:49:25;;;;;;;87.50;44.40;;;;;;;-2.63;100.00;98147.52;105771;1294;61354;-78
2022/12/16 01:51:56;;;;;;;82.40;43.50;;;;;;;-2.63;100.00;98141.95;105790;1294;63883;-78
2022/12/16 01:54:32;;;;;;;90.70;47.10;;;;;;;-2.63;100.00;98143.52;105640;1294;59742;-79
2022/12/16 01:57:02;;;;;;;84.50;42.10;;;;;;;-2.63;100.00;98141.61;105767;1287;61421;-78
2022/12/16 01:59:33;;;;;;;84.70;45.90;;;;;;;-2.63;100.00;98144.73;105793;1294;66952;-78
2022/12/16 02:01:59;;;;;;;81.00;43.90;;;;;;;-2.64;100.00;98141.96;105797;1287;59941;-78
2022/12/16 02:04:25;;;;;;;83.50;44.90;;;;;;;-2.65;100.00;98136.27;105778;1294;59741;-78
2022/12/16 02:06:52;;;;;;;83.60;46.10;;;;;;;-2.67;100.00;98127.95;105768;1294;59739;-79
2022/12/16 02:09:18;;;;;;;76.40;41.70;;;;;;;-2.68;100.00;98128.34;105775;1295;59658;-76
2022/12/16 02:12:02;;;;;;;81.70;46.30;;;;;;;-2.69;100.00;98127.67;105638;1294;59784;-77
2022/12/16 02:14:54;;;;;;;90.00;45.20;;;;;;;-2.70;100.00;98122.33;105795;1293;60074;-77
2022/12/16 02:17:31;;;;;;;81.20;43.70;;;;;;;-2.70;100.00;98115.70;105773;1294;63982;-77
2022/12/16 02:20:19;;;;;;;72.50;40.80;;;;;;;-2.71;100.00;98111.56;105766;1295;59763;-79
2022/12/16 02:23:27;;;;;;;80.00;43.60;;;;;;;-2.70;100.00;98113.30;105962;1290;59518;-78
2022/12/16 02:26:14;;;;;;;84.30;44.70;;;;;;;-2.71;100.00;98110.19;105410;1300;66899;-78
2022/12/16 02:28:52;;;;;;;75.80;44.90;;;;;;;-2.71;100.00;98106.89;105293;1299;61623;-78
2022/12/16 02:31:29;;;;;;;76.90;42.30;;;;;;;-2.72;100.00;98100.48;105282;1301;65359;-78
2022/12/16 02:34:27;;;;;;;73.00;39.60;;;;;;;-2.74;100.00;98098.27;105315;1299;59679;-78
2022/12/16 02:37:16;;;;;;;80.60;43.90;;;;;;;-2.75;100.00;98092.05;105242;1294;60551;-78
2022/12/16 02:39:57;;;;;;;71.50;41.20;;;;;;;-2.76;100.00;98088.09;105302;1297;76457;-75
2022/12/16 02:42:30;;;;;;;69.90;40.70;;;;;;;-2.76;100.00;98082.86;105145;1299;59817;-79
2022/12/16 02:45:03;;;;;;;73.80;40.80;;;;;;;-2.77;100.00;98083.21;105220;1300;72809;-79
2022/12/16 02:47:30;;;;;;;78.70;42.70;;;;;;;-2.77;100.00;98077.66;105630;1300;59528;-78
2022/12/16 02:49:56;;;;;;;81.10;45.20;;;;;;;-2.78;100.00;98073.17;104923;1296;1002403;-77
2022/12/16 02:52:26;;;;;;;74.90;43.40;;;;;;;-2.78;100.00;98069.20;105673;1298;59746;-78
2022/12/16 02:55:03;;;;;;;66.70;38.40;;;;;;;-2.80;100.00;98063.14;105629;1295;59807;-75
2022/12/16 02:57:52;;;;;;;69.00;39.00;;;;;;;-2.80;100.00;98066.45;104923;1293;1002042;-78
